Time;durP1;ratioP1;P1;durP2;ratioP2;P2;SDS_P1;SDS_P2;PMS_P1;PMS_P2;Temp;Humidity;BMP_temperature;BMP_pressure;BME280_temperature;BME280_humidity;BME280_pressure;Samples;Min_cycle;Max_cycle;Signal;HPM_P1;HPM_P2
2022/01/29 00:02:25;;;;;;;10.20;4.40;;;;;;;0.04;100.00;99954.77;105243;1271;77199;-77
2022/01/29 00:04:52;;;;;;;10.30;5.40;;;;;;;0.03;100.00;99954.77;105229;1271;70141;-78
2022/01/29 00:07:18;;;;;;;6.60;4.10;;;;;;;0.03;100.00;99955.81;104945;1271;71777;-78
2022/01/29 00:09:47;;;;;;;9.20;5.20;;;;;;;0.03;100.00;99958.44;105185;1271;61987;-77
2022/01/29 00:12:14;;;;;;;11.10;5.30;;;;;;;0.02;100.00;99957.05;105246;1271;62063;-77
2022/01/29 00:14:40;;;;;;;10.90;5.60;;;;;;;0.01;100.00;99955.84;105136;1271;77289;-79
2022/01/29 00:17:07;;;;;;;8.50;4.80;;;;;;;-0.01;100.00;99953.41;105233;1271;70444;-76
2022/01/29 00:19:38;;;;;;;10.00;5.10;;;;;;;-0.03;100.00;99951.14;105202;1271;73402;-76
2022/01/29 00:22:04;;;;;;;10.10;5.00;;;;;;;-0.04;100.00;99955.70;105235;1271;61964;-78
2022/01/29 00:24:31;;;;;;;12.70;5.60;;;;;;;-0.05;100.00;99957.81;105209;1271;62010;-78
2022/01/29 00:26:57;;;;;;;14.00;6.20;;;;;;;-0.05;100.00;99957.63;104962;1271;75612;-77
2022/01/29 00:29:24;;;;;;;9.70;4.80;;;;;;;-0.08;100.00;99960.63;105219;1270;70387;-79
2022/01/29 00:31:50;;;;;;;7.30;4.50;;;;;;;-0.11;100.00;99956.28;105196;1271;74391;-76
2022/01/29 00:34:17;;;;;;;10.20;5.40;;;;;;;-0.15;100.00;99959.27;105210;1271;62037;-80
2022/01/29 00:36:44;;;;;;;8.20;5.00;;;;;;;-0.17;100.00;99955.28;105219;1271;62132;-79
2022/01/29 00:39:10;;;;;;;8.20;4.80;;;;;;;-0.22;100.00;99951.14;105228;1271;75850;-78
2022/01/29 00:41:37;;;;;;;9.30;4.90;;;;;;;-0.26;100.00;99955.71;105196;1271;69083;-78
2022/01/29 00:44:04;;;;;;;10.00;4.50;;;;;;;-0.32;100.00;99958.55;105213;1271;73306;-79
2022/01/29 00:46:30;;;;;;;9.80;4.60;;;;;;;-0.39;100.00;99955.80;105129;1271;62181;-76
2022/01/29 00:48:57;;;;;;;8.00;5.00;;;;;;;-0.46;100.00;99955.51;105216;1271;62046;-76
2022/01/29 00:51:24;;;;;;;10.10;5.40;;;;;;;-0.55;100.00;99959.73;105231;1271;77128;-77
2022/01/29 00:53:50;;;;;;;10.50;5.60;;;;;;;-0.66;100.00;99963.98;105218;1271;70907;-77
2022/01/29 00:56:17;;;;;;;13.60;6.80;;;;;;;-0.76;100.00;99967.39;105211;1271;62482;-76
2022/01/29 00:58:52;;;;;;;22.00;12.50;;;;;;;-0.84;100.00;99964.09;101887;1307;599477;-77
2022/01/29 01:01:19;;;;;;;13.20;6.70;;;;;;;-0.97;100.00;99963.64;104441;1281;59432;-77
2022/01/29 01:03:45;;;;;;;12.20;7.20;;;;;;;-1.06;100.00;99969.09;104470;1281;61024;-77
2022/01/29 01:06:12;;;;;;;10.50;6.20;;;;;;;-1.15;100.00;99972.09;104509;1281;73018;-77
2022/01/29 01:08:38;;;;;;;19.50;10.20;;;;;;;-1.23;100.00;99977.16;104438;1281;69215;-74
2022/01/29 01:11:05;;;;;;;24.60;12.30;;;;;;;-1.29;100.00;99978.41;103723;1281;1003098;-77
2022/01/29 01:13:33;;;;;;;19.00;10.30;;;;;;;-1.34;100.00;99981.73;104428;1281;175015;-78
2022/01/29 01:16:02;;;;;;;20.60;10.30;;;;;;;-1.40;100.00;99977.05;104763;1281;61114;-78
2022/01/29 01:18:28;;;;;;;19.50;10.80;;;;;;;-1.46;100.00;99976.55;104147;1283;72159;-78
2022/01/29 01:20:55;;;;;;;20.90;11.30;;;;;;;-1.49;100.00;99985.42;104647;1279;69264;-77
2022/01/29 01:23:22;;;;;;;15.80;8.20;;;;;;;-1.50;100.00;99981.24;104716;1281;73456;-76
2022/01/29 01:25:49;;;;;;;19.80;9.50;;;;;;;-1.52;100.00;99974.98;104654;1281;60236;-76
2022/01/29 01:28:15;;;;;;;14.20;6.90;;;;;;;-1.53;100.00;99973.06;104662;1281;61108;-76
2022/01/29 01:30:42;;;;;;;15.40;7.70;;;;;;;-1.54;100.00;99971.33;104646;1281;74769;-78
2022/01/29 01:33:09;;;;;;;13.50;7.10;;;;;;;-1.55;100.00;99969.42;103950;1281;1015736;-79
2022/01/29 01:35:46;;;;;;;14.00;6.60;;;;;;;-1.57;100.00;99971.69;104363;1281;74415;-77
2022/01/29 01:38:23;;;;;;;15.00;7.60;;;;;;;-1.58;100.00;99967.51;104633;1280;59660;-76
2022/01/29 01:40:59;;;;;;;14.90;6.90;;;;;;;-1.60;100.00;99968.56;104672;1279;60796;-78
2022/01/29 01:43:26;;;;;;;12.20;6.50;;;;;;;-1.61;100.00;99966.63;104758;1281;73645;-78
2022/01/29 01:45:52;;;;;;;10.00;5.90;;;;;;;-1.62;100.00;99968.39;104168;1281;69539;-77
2022/01/29 01:48:19;;;;;;;15.30;6.30;;;;;;;-1.62;100.00;99965.08;104634;1281;73511;-78
2022/01/29 01:50:47;;;;;;;9.60;5.00;;;;;;;-1.62;100.00;99967.34;104255;1281;59689;-78
2022/01/29 01:53:17;;;;;;;14.30;8.00;;;;;;;-1.62;100.00;99969.08;104720;1279;60177;-78
2022/01/29 01:55:44;;;;;;;18.60;8.80;;;;;;;-1.61;100.00;99963.85;104687;1281;74850;-78
2022/01/29 01:58:11;;;;;;;20.50;9.40;;;;;;;-1.62;100.00;99962.10;104616;1281;69238;-78
2022/01/29 02:00:37;;;;;;;15.00;8.50;;;;;;;-1.60;100.00;99960.55;105305;1268;74098;-76
2022/01/29 02:03:04;;;;;;;19.40;9.10;;;;;;;-1.57;100.00;99964.36;105337;1268;59625;-76
2022/01/29 02:05:30;;;;;;;15.30;8.20;;;;;;;-1.55;100.00;99963.14;105318;1268;60952;-77
2022/01/29 02:07:58;;;;;;;17.90;7.60;;;;;;;-1.53;100.00;99965.91;105327;1268;59627;-78
2022/01/29 02:10:27;;;;;;;16.90;8.00;;;;;;;-1.52;100.00;99967.33;105496;1268;70432;-77
2022/01/29 02:13:00;;;;;;;17.80;8.60;;;;;;;-1.51;100.00;99969.07;105237;1268;73422;-77
2022/01/29 02:15:28;;;;;;;14.90;9.90;;;;;;;-1.51;100.00;99969.58;105297;1268;59787;-78
2022/01/29 02:17:55;;;;;;;17.00;9.10;;;;;;;-1.53;100.00;99972.03;105367;1268;61119;-77
2022/01/29 02:20:25;;;;;;;24.60;10.90;;;;;;;-1.56;100.00;99973.77;105307;1268;74582;-77
2022/01/29 02:22:52;;;;;;;21.90;11.60;;;;;;;-1.58;100.00;99970.98;104709;1268;1003923;-77
2022/01/29 02:25:27;;;;;;;19.40;11.90;;;;;;;-1.61;100.00;99970.64;105332;1268;74242;-78
2022/01/29 02:27:54;;;;;;;23.00;13.60;;;;;;;-1.65;100.00;99969.95;105307;1268;60342;-78
2022/01/29 02:30:20;;;;;;;25.10;16.50;;;;;;;-1.70;100.00;99972.94;105354;1268;61798;-77
2022/01/29 02:32:47;;;;;;;20.50;14.00;;;;;;;-1.74;100.00;99971.20;105341;1268;59656;-78
2022/01/29 02:35:13;;;;;;;28.00;15.90;;;;;;;-1.79;100.00;99970.33;105136;1272;69264;-78
2022/01/29 02:37:40;;;;;;;26.80;17.20;;;;;;;-1.83;100.00;99972.77;105403;1268;59588;-78
2022/01/29 02:40:07;;;;;;;26.10;17.80;;;;;;;-1.87;100.00;99970.86;105485;1268;60962;-77
2022/01/29 02:42:33;;;;;;;29.80;18.00;;;;;;;-1.91;100.00;99973.66;105294;1268;60919;-76
2022/01/29 02:45:00;;;;;;;24.00;15.10;;;;;;;-1.96;100.00;99970.52;105587;1268;74116;-77
2022/01/29 02:47:30;;;;;;;25.70;16.70;;;;;;;-2.01;100.00;99967.73;105607;1268;70243;-76
2022/01/29 02:49:57;;;;;;;28.40;16.90;;;;;;;-2.03;100.00;99961.81;105897;1268;73375;-77
2022/01/29 02:52:23;;;;;;;25.20;16.50;;;;;;;-2.06;100.00;99962.34;105683;1268;59585;-78
2022/01/29 02:54:50;;;;;;;27.80;15.10;;;;;;;-2.09;100.00;99957.46;106054;1268;59679;-77
2022/01/29 02:57:18;;;;;;;23.10;14.30;;;;;;;-2.12;100.00;99952.77;106341;1268;74996;-78
2022/01/29 02:59:45;;;;;;;23.40;14.50;;;;;;;-2.14;100.00;99950.33;108239;1268;70361;-74
2022/01/29 03:02:12;;;;;;;20.70;13.30;;;;;;;-2.16;100.00;99945.80;108256;1268;73209;-74
2022/01/29 03:04:38;;;;;;;20.00;12.90;;;;;;;-2.19;100.00;99945.46;108281;1268;60003;-78
2022/01/29 03:07:05;;;;;;;18.90;11.60;;;;;;;-2.21;100.00;99943.89;108277;1268;59781;-74
2022/01/29 03:09:31;;;;;;;17.40;9.60;;;;;;;-2.23;100.00;99936.58;105683;1268;59659;-76
2022/01/29 03:11:59;;;;;;;15.50;9.20;;;;;;;-2.24;100.00;99939.90;105282;1268;59550;-80
2022/01/29 03:14:25;;;;;;;18.70;10.00;;;;;;;-2.25;100.00;99937.79;105340;1268;73225;-78
2022/01/29 03:16:52;;;;;;;17.30;9.90;;;;;;;-2.29;100.00;99938.84;105335;1268;59738;-79
2022/01/29 03:19:18;;;;;;;18.20;10.20;;;;;;;-2.32;100.00;99937.61;105332;1268;61022;-77
2022/01/29 03:21:45;;;;;;;16.90;9.30;;;;;;;-2.35;100.00;99937.96;105286;1268;60451;-80
2022/01/29 03:24:11;;;;;;;17.10;9.40;;;;;;;-2.37;100.00;99938.48;105301;1268;59748;-79
2022/01/29 03:26:38;;;;;;;18.50;9.10;;;;;;;-2.38;100.00;99933.95;105269;1268;59658;-77
2022/01/29 03:29:04;;;;;;;16.20;10.90;;;;;;;-2.39;100.00;99929.79;105253;1268;60030;-76
2022/01/29 03:31:31;;;;;;;18.30;10.40;;;;;;;-2.41;100.00;99926.48;105237;1268;59533;-77
2022/01/29 03:33:58;;;;;;;14.40;9.30;;;;;;;-2.44;100.00;99919.86;105006;1269;59625;-77
2022/01/29 03:36:24;;;;;;;13.60;8.40;;;;;;;-2.46;100.00;99915.86;105259;1268;69722;-77
2022/01/29 03:38:51;;;;;;;20.10;10.00;;;;;;;-2.45;100.00;99916.73;105246;1268;73137;-77
2022/01/29 03:41:18;;;;;;;19.10;9.40;;;;;;;-2.46;100.00;99917.95;105004;1271;60187;-76
2022/01/29 03:43:48;;;;;;;19.70;10.40;;;;;;;-2.47;100.00;99916.04;105305;1268;60849;-79
2022/01/29 03:46:14;;;;;;;;;;;;;;;-2.47;100.00;99918.46;105317;1268;73929;-76
2022/01/29 03:48:41;;;;;;;16.90;9.50;;;;;;;-2.47;100.00;99921.42;105295;1268;59602;-77
2022/01/29 03:51:08;;;;;;;13.30;8.30;;;;;;;-2.48;100.00;99922.81;105307;1268;59776;-77
2022/01/29 03:53:34;;;;;;;14.80;9.30;;;;;;;-2.46;100.00;99926.47;105258;1268;59678;-76
2022/01/29 03:56:01;;;;;;;19.30;13.40;;;;;;;-2.44;100.00;99922.48;105300;1268;59541;-78
2022/01/29 03:58:27;;;;;;;21.80;13.10;;;;;;;-2.41;100.00;99920.73;105298;1268;74609;-78
2022/01/29 04:00:54;;;;;;;18.60;12.00;;;;;;;-2.37;100.00;99919.00;105317;1268;68144;-78
2022/01/29 04:03:21;;;;;;;18.20;12.00;;;;;;;-2.32;100.00;99916.04;105260;1268;74144;-77
2022/01/29 04:05:47;;;;;;;18.40;11.20;;;;;;;-2.28;100.00;99915.70;105262;1268;59794;-78
2022/01/29 04:08:17;;;;;;;19.90;12.60;;;;;;;-2.24;100.00;99910.81;105287;1268;59660;-77
2022/01/29 04:10:44;;;;;;;19.90;11.80;;;;;;;-2.19;100.00;99906.98;105274;1268;74697;-77
2022/01/29 04:13:11;;;;;;;23.40;12.60;;;;;;;-2.16;100.00;99899.32;105329;1268;70388;-76
2022/01/29 04:15:38;;;;;;;19.80;11.30;;;;;;;-2.15;100.00;99896.19;104582;1268;1003413;-77
2022/01/29 04:18:05;;;;;;;23.20;13.20;;;;;;;-2.14;100.00;99898.27;105351;1268;60279;-78
2022/01/29 04:20:32;;;;;;;21.80;12.70;;;;;;;-2.14;100.00;99895.48;104521;1268;1003090;-78
2022/01/29 04:22:58;;;;;;;24.40;12.30;;;;;;;-2.14;100.00;99893.04;105271;1268;74758;-76
2022/01/29 04:25:25;;;;;;;20.10;11.70;;;;;;;-2.12;100.00;99891.30;105282;1268;59655;-77
2022/01/29 04:27:51;;;;;;;26.80;12.80;;;;;;;-2.11;100.00;99891.66;105268;1268;74630;-77
2022/01/29 04:30:28;;;;;;;26.70;13.10;;;;;;;-2.11;100.00;99884.52;105297;1268;59675;-79
2022/01/29 04:33:15;;;;;;;28.90;13.60;;;;;;;-2.12;100.00;99879.65;105306;1268;62027;-79
2022/01/29 04:35:42;;;;;;;32.70;13.50;;;;;;;-2.14;100.00;99877.04;105047;1268;73771;-73
2022/01/29 04:38:08;;;;;;;25.50;13.30;;;;;;;-2.15;100.00;99876.87;105335;1268;69164;-78
2022/01/29 04:40:35;;;;;;;23.00;10.60;;;;;;;-2.16;100.00;99874.24;105231;1268;74461;-77
2022/01/29 04:43:03;;;;;;;28.80;11.70;;;;;;;-2.16;100.00;99870.07;105284;1268;60840;-78
2022/01/29 04:45:30;;;;;;;25.20;11.10;;;;;;;-2.15;100.00;99870.42;105308;1266;61752;-78
2022/01/29 04:47:57;;;;;;;24.90;12.60;;;;;;;-2.15;100.00;99864.67;105338;1268;73954;-79
2022/01/29 04:50:24;;;;;;;20.80;10.90;;;;;;;-2.19;100.00;99859.45;105266;1268;70780;-78
2022/01/29 04:52:51;;;;;;;18.90;8.80;;;;;;;-2.24;100.00;99857.39;105225;1268;73172;-78
2022/01/29 04:55:17;;;;;;;23.10;11.00;;;;;;;-2.29;100.00;99853.38;105263;1268;60091;-77
2022/01/29 04:57:44;;;;;;;24.70;11.40;;;;;;;-2.34;100.00;99850.77;105285;1268;59795;-77
2022/01/29 05:00:19;;;;;;;20.60;10.40;;;;;;;-2.40;100.00;99848.86;105266;1268;73646;-79
2022/01/29 05:02:53;;;;;;;22.30;10.50;;;;;;;-2.45;100.00;99851.14;105259;1268;69354;-78
2022/01/29 05:05:20;;;;;;;23.20;11.30;;;;;;;-2.50;100.00;99845.39;105406;1268;73324;-79
2022/01/29 05:07:47;;;;;;;28.00;13.30;;;;;;;-2.53;100.00;99847.49;105307;1268;60471;-77
2022/01/29 05:10:14;;;;;;;20.40;9.90;;;;;;;-2.57;100.00;99848.02;105093;1269;61779;-78
2022/01/29 05:15:14;;;;;;;21.50;10.80;;;;;;;-2.63;100.00;99846.96;105295;1268;69204;-77
2022/01/29 05:28:42;;;;;;;20.80;10.50;;;;;;;-2.78;100.00;99841.21;105083;1268;69794;-77
2022/01/29 05:31:09;;;;;;;16.70;9.10;;;;;;;-2.81;100.00;99843.99;105294;1268;73272;-78
2022/01/29 05:33:36;;;;;;;23.10;11.60;;;;;;;-2.81;100.00;99843.84;105301;1268;60642;-77
2022/01/29 05:36:02;;;;;;;19.80;10.80;;;;;;;-2.82;100.00;99847.65;105097;1268;60414;-78
2022/01/29 05:38:29;;;;;;;16.00;9.60;;;;;;;-2.84;100.00;99844.86;105249;1268;74321;-77
2022/01/29 05:40:56;;;;;;;20.20;10.00;;;;;;;-2.85;100.00;99849.04;105269;1268;70536;-77
2022/01/29 05:43:23;;;;;;;23.80;11.80;;;;;;;-2.86;100.00;99845.04;105276;1268;73430;-78
2022/01/29 05:45:50;;;;;;;18.20;11.20;;;;;;;-2.88;100.00;99837.02;105285;1266;60386;-76
2022/01/29 05:48:17;;;;;;;18.90;10.80;;;;;;;-2.88;100.00;99841.20;105188;1268;60364;-78
2022/01/29 05:50:43;;;;;;;21.30;11.00;;;;;;;-2.87;100.00;99847.30;105300;1268;73533;-78
2022/01/29 05:53:10;;;;;;;30.70;14.40;;;;;;;-2.86;100.00;99846.95;105396;1268;60554;-77
2022/01/29 05:55:36;;;;;;;36.30;19.70;;;;;;;-2.82;100.00;99850.25;105410;1268;74500;-77
2022/01/29 05:58:03;;;;;;;35.40;20.40;;;;;;;-2.74;100.00;99847.14;105373;1268;60353;-77
2022/01/29 06:00:30;;;;;;;36.80;20.00;;;;;;;-2.66;100.00;99854.80;105243;1268;61209;-77
2022/01/29 06:03:00;;;;;;;35.90;19.10;;;;;;;-2.57;100.00;99856.89;105281;1268;60466;-79
2022/01/29 06:05:27;;;;;;;30.30;16.60;;;;;;;-2.49;100.00;99854.26;105091;1268;68811;-77
2022/01/29 06:07:53;;;;;;;27.20;13.70;;;;;;;-2.40;100.00;99845.05;105270;1267;74081;-78
2022/01/29 06:10:20;;;;;;;31.00;15.70;;;;;;;-2.32;100.00;99846.08;105290;1268;61362;-78
2022/01/29 06:13:04;;;;;;;31.20;14.10;;;;;;;-2.24;100.00;99839.27;105048;1268;62097;-77
2022/01/29 06:15:45;;;;;;;21.90;11.20;;;;;;;-2.18;100.00;99841.02;105262;1268;74654;-78
2022/01/29 06:18:17;;;;;;;20.60;9.60;;;;;;;-2.12;100.00;99838.55;105280;1267;68657;-77
2022/01/29 06:20:49;;;;;;;19.50;9.50;;;;;;;-2.08;100.00;99842.39;105315;1268;74266;-79
2022/01/29 06:23:18;;;;;;;18.80;10.00;;;;;;;-2.05;100.00;99839.94;105271;1268;60507;-81
2022/01/29 06:25:45;;;;;;;19.80;10.00;;;;;;;-2.03;100.00;99841.33;105417;1268;61812;-81
2022/01/29 06:28:11;;;;;;;15.60;7.80;;;;;;;-2.03;100.00;99839.23;105279;1268;73904;-80
2022/01/29 06:30:38;;;;;;;17.80;9.50;;;;;;;-2.03;100.00;99832.78;105335;1268;69394;-78
2022/01/29 06:33:10;;;;;;;21.20;8.30;;;;;;;-2.05;100.00;99827.74;105293;1268;73426;-78
2022/01/29 06:35:38;;;;;;;16.80;8.60;;;;;;;-2.07;100.00;99822.88;105269;1268;60547;-77
2022/01/29 06:38:06;;;;;;;22.10;9.10;;;;;;;-2.07;100.00;99818.52;105396;1268;61017;-78
2022/01/29 06:40:34;;;;;;;22.30;9.20;;;;;;;-2.05;100.00;99811.21;105533;1268;73356;-77
2022/01/29 06:43:03;;;;;;;16.70;8.20;;;;;;;-2.03;100.00;99801.98;105327;1268;70370;-78
2022/01/29 06:45:31;;;;;;;19.70;10.30;;;;;;;-2.01;100.00;99801.09;105328;1267;74582;-78
2022/01/29 06:47:58;;;;;;;21.60;10.30;;;;;;;-1.98;100.00;99797.61;105473;1268;60439;-78
2022/01/29 06:50:25;;;;;;;21.20;10.00;;;;;;;-1.91;100.00;99799.67;105458;1268;60457;-80
2022/01/29 06:52:52;;;;;;;21.10;10.50;;;;;;;-1.85;100.00;99787.98;105389;1268;74469;-78
2022/01/29 06:55:20;;;;;;;17.30;9.70;;;;;;;-1.79;100.00;99781.86;105318;1268;68615;-77
2022/01/29 06:57:47;;;;;;;14.70;9.10;;;;;;;-1.74;100.00;99779.57;105206;1269;73428;-80
2022/01/29 07:00:15;;;;;;;16.80;8.70;;;;;;;-1.71;100.00;99780.61;105357;1268;60517;-80
2022/01/29 07:02:42;;;;;;;12.80;8.00;;;;;;;-1.67;100.00;99782.52;105369;1268;61150;-78
2022/01/29 07:05:10;;;;;;;14.50;8.70;;;;;;;-1.62;100.00;99778.46;105361;1268;74607;-76
2022/01/29 07:07:37;;;;;;;17.40;8.30;;;;;;;-1.59;100.00;99774.79;105402;1267;70286;-76
2022/01/29 07:10:05;;;;;;;19.00;10.70;;;;;;;-1.58;100.00;99777.58;105316;1268;73410;-77
2022/01/29 07:12:33;;;;;;;22.30;10.70;;;;;;;-1.60;100.00;99781.77;105346;1268;60554;-78
2022/01/29 07:14:59;;;;;;;22.30;11.30;;;;;;;-1.61;100.00;99769.40;105217;1268;60856;-79
2022/01/29 07:17:26;;;;;;;21.00;11.40;;;;;;;-1.62;100.00;99766.29;105317;1268;74694;-79
2022/01/29 07:19:52;;;;;;;22.30;11.60;;;;;;;-1.65;100.00;99765.58;105273;1268;70542;-77
2022/01/29 07:22:19;;;;;;;19.20;9.90;;;;;;;-1.65;100.00;99767.68;105292;1268;72763;-78
2022/01/29 07:24:46;;;;;;;27.30;13.00;;;;;;;-1.62;100.00;99768.71;105268;1268;60535;-78
2022/01/29 07:27:14;;;;;;;20.20;11.90;;;;;;;-1.56;100.00;99762.05;105503;1267;60792;-79
2022/01/29 07:29:41;;;;;;;26.20;12.00;;;;;;;-1.47;100.00;99757.66;105321;1268;75342;-78
2022/01/29 07:32:08;;;;;;;18.50;9.80;;;;;;;-1.40;100.00;99751.85;105287;1268;69391;-75
2022/01/29 07:34:34;;;;;;;24.30;11.60;;;;;;;-1.32;100.00;99752.85;105257;1268;73153;-77
2022/01/29 07:37:02;;;;;;;17.10;9.20;;;;;;;-1.24;100.00;99756.63;105273;1268;60534;-78
2022/01/29 07:39:28;;;;;;;19.30;9.70;;;;;;;-1.16;100.00;99749.26;105322;1268;60774;-78
2022/01/29 07:41:55;;;;;;;19.10;9.00;;;;;;;-1.08;100.00;99749.36;105298;1268;74580;-79
2022/01/29 07:44:23;;;;;;;17.10;8.30;;;;;;;-1.01;100.00;99746.52;105046;1268;68606;-79
2022/01/29 07:46:51;;;;;;;18.40;8.50;;;;;;;-0.93;100.00;99739.83;105358;1268;74662;-77
2022/01/29 07:49:18;;;;;;;20.00;9.30;;;;;;;-0.85;100.00;99739.05;105569;1268;60481;-77
2022/01/29 07:51:44;;;;;;;21.60;9.90;;;;;;;-0.77;100.00;99735.86;105842;1268;60989;-80
2022/01/29 07:54:11;;;;;;;21.80;10.30;;;;;;;-0.69;100.00;99729.33;105374;1268;73304;-77
2022/01/29 07:56:38;;;;;;;18.50;10.60;;;;;;;-0.61;100.00;99722.61;105704;1268;60555;-78
2022/01/29 07:59:05;;;;;;;19.40;9.80;;;;;;;-0.54;100.00;99719.93;105234;1268;73208;-78
2022/01/29 08:01:32;;;;;;;17.60;9.40;;;;;;;-0.46;100.00;99716.52;105148;1268;60569;-80
2022/01/29 08:03:59;;;;;;;15.80;8.30;;;;;;;-0.38;100.00;99716.62;105525;1267;61696;-78
2022/01/29 08:06:31;;;;;;;15.70;7.90;;;;;;;-0.30;100.00;99713.91;105355;1268;74291;-79
2022/01/29 08:08:58;;;;;;;14.30;7.00;;;;;;;-0.20;100.00;99703.50;105344;1268;69804;-78
2022/01/29 08:11:25;;;;;;;15.70;7.00;;;;;;;-0.12;100.00;99698.85;105312;1268;73130;-79
2022/01/29 08:13:52;;;;;;;16.80;7.30;;;;;;;-0.04;100.00;99698.76;105440;1268;60581;-78
2022/01/29 08:16:18;;;;;;;12.90;6.70;;;;;;;0.04;100.00;99694.46;105054;1268;61788;-80
2022/01/29 08:18:46;;;;;;;11.80;6.60;;;;;;;0.10;100.00;99691.06;105279;1268;73743;-78
2022/01/29 08:21:16;;;;;;;18.90;8.50;;;;;;;0.15;100.00;99683.47;105093;1268;67552;-78
2022/01/29 08:23:44;;;;;;;18.30;8.00;;;;;;;0.20;100.00;99683.05;105382;1268;73341;-79
2022/01/29 08:26:11;;;;;;;14.90;7.20;;;;;;;0.29;99.98;99680.50;105299;1268;60503;-79
2022/01/29 08:28:39;;;;;;;16.60;7.90;;;;;;;0.37;99.88;99674.42;105299;1268;60836;-79
2022/01/29 08:31:05;;;;;;;13.10;6.10;;;;;;;0.46;99.24;99670.98;105115;1268;74494;-80
2022/01/29 08:33:32;;;;;;;14.20;7.40;;;;;;;0.56;99.21;99672.92;105270;1268;70256;-78
2022/01/29 08:35:59;;;;;;;11.20;5.80;;;;;;;0.65;98.66;99667.02;105540;1268;73539;-79
2022/01/29 08:38:27;;;;;;;11.80;5.70;;;;;;;0.75;97.82;99668.95;105365;1268;60605;-77
2022/01/29 08:40:54;;;;;;;14.50;6.90;;;;;;;0.82;97.94;99668.83;105353;1268;60827;-80
2022/01/29 08:43:22;;;;;;;14.50;6.50;;;;;;;0.92;98.22;99666.75;105372;1268;74262;-78
2022/01/29 08:45:50;;;;;;;13.70;6.40;;;;;;;1.01;97.49;99662.03;105355;1268;70561;-79
2022/01/29 08:48:18;;;;;;;13.20;6.40;;;;;;;1.10;97.53;99653.13;105464;1268;73458;-77
2022/01/29 08:50:44;;;;;;;10.00;5.40;;;;;;;1.19;96.93;99648.77;105292;1268;61092;-78
2022/01/29 08:53:11;;;;;;;12.00;5.90;;;;;;;1.28;96.62;99645.29;105333;1268;60480;-77
2022/01/29 08:55:38;;;;;;;16.40;7.90;;;;;;;1.36;96.15;99642.70;105145;1268;75631;-78
2022/01/29 08:58:08;;;;;;;13.90;6.60;;;;;;;1.45;96.82;99646.52;105363;1268;60481;-77
2022/01/29 09:00:39;;;;;;;12.60;5.60;;;;;;;1.55;95.87;99639.67;105539;1268;73477;-79
2022/01/29 09:03:06;;;;;;;16.40;8.10;;;;;;;1.66;95.50;99639.45;105711;1268;60356;-76
2022/01/29 09:05:34;;;;;;;15.70;8.20;;;;;;;1.77;95.69;99635.73;105648;1268;60856;-78
2022/01/29 09:08:03;;;;;;;11.20;6.10;;;;;;;1.90;95.80;99626.34;105975;1268;74285;-78
2022/01/29 09:10:31;;;;;;;11.20;6.10;;;;;;;2.05;95.20;99622.70;105955;1268;69258;-78
2022/01/29 09:12:58;;;;;;;13.50;6.70;;;;;;;2.15;94.84;99623.35;105936;1268;74489;-75
2022/01/29 09:15:25;;;;;;;13.80;7.30;;;;;;;2.25;94.65;99616.46;106030;1268;60464;-77
2022/01/29 09:17:52;;;;;;;20.30;6.70;;;;;;;2.34;94.68;99622.71;105799;1268;62007;-76
2022/01/29 09:20:19;;;;;;;11.00;5.80;;;;;;;2.39;94.03;99616.46;106284;1268;75346;-77
2022/01/29 09:22:46;;;;;;;14.70;6.90;;;;;;;2.41;93.70;99617.48;106144;1268;68667;-78
2022/01/29 09:25:12;;;;;;;14.00;6.80;;;;;;;2.46;93.53;99617.20;107892;1268;72931;-76
2022/01/29 09:27:42;;;;;;;14.30;6.30;;;;;;;2.52;94.03;99616.16;108292;1268;59260;-77
2022/01/29 09:30:09;;;;;;;13.40;6.50;;;;;;;2.62;93.73;99609.78;108278;1268;60969;-75
2022/01/29 09:32:35;;;;;;;15.00;6.50;;;;;;;2.71;93.07;99610.44;108222;1268;74578;-77
2022/01/29 09:35:03;;;;;;;22.30;7.90;;;;;;;2.77;93.19;99606.06;107331;1268;67501;-77
2022/01/29 09:37:29;;;;;;;18.40;7.40;;;;;;;2.83;92.55;99604.15;105277;1268;73328;-77
2022/01/29 09:39:56;;;;;;;15.80;7.40;;;;;;;2.86;92.91;99599.35;105285;1268;60550;-77
2022/01/29 09:42:24;;;;;;;16.40;7.00;;;;;;;2.91;92.86;99599.05;105294;1268;61937;-79
2022/01/29 09:44:52;;;;;;;20.90;8.70;;;;;;;2.91;92.17;99598.50;105196;1268;75584;-79
2022/01/29 09:47:23;;;;;;;27.30;11.50;;;;;;;2.89;91.38;99596.80;105385;1268;70124;-77
2022/01/29 09:49:52;;;;;;;21.50;9.30;;;;;;;2.88;92.11;99589.83;105312;1268;74244;-79
2022/01/29 09:52:19;;;;;;;21.40;10.00;;;;;;;2.90;92.43;99582.92;105380;1268;60620;-78
2022/01/29 09:54:47;;;;;;;24.50;10.90;;;;;;;2.92;92.29;99574.26;105193;1268;61239;-77
2022/01/29 09:57:15;;;;;;;18.10;7.70;;;;;;;2.89;91.92;99566.98;105473;1267;74296;-78
2022/01/29 09:59:42;;;;;;;22.40;9.30;;;;;;;2.82;92.46;99560.50;105333;1268;69614;-79
2022/01/29 10:02:17;;;;;;;18.70;7.80;;;;;;;2.75;92.52;99549.80;105340;1268;71561;-76
2022/01/29 10:04:51;;;;;;;15.30;6.70;;;;;;;2.70;91.92;99543.42;105518;1268;60468;-77
2022/01/29 10:07:29;;;;;;;14.50;7.60;;;;;;;2.68;92.63;99549.64;105315;1268;61737;-79
2022/01/29 10:09:58;;;;;;;19.30;8.20;;;;;;;2.73;93.20;99539.67;105401;1268;74487;-77
2022/01/29 10:12:30;;;;;;;17.80;8.10;;;;;;;2.77;92.72;99528.70;105344;1268;69149;-78
2022/01/29 10:15:06;;;;;;;16.50;6.30;;;;;;;2.74;92.24;99522.63;104527;1268;1003746;-77
2022/01/29 10:17:47;;;;;;;16.30;6.60;;;;;;;2.68;92.16;99521.02;105442;1267;60500;-77
2022/01/29 10:20:19;;;;;;;21.50;8.10;;;;;;;2.66;92.73;99517.23;105229;1268;60885;-78
2022/01/29 10:22:57;;;;;;;16.00;6.80;;;;;;;2.66;93.13;99515.13;105279;1268;74548;-78
2022/01/29 10:25:33;;;;;;;17.30;6.80;;;;;;;2.62;92.63;99515.91;105242;1268;69649;-79
2022/01/29 10:28:20;;;;;;;16.50;7.60;;;;;;;2.53;92.77;99510.20;105575;1268;73413;-79
2022/01/29 10:30:47;;;;;;;15.90;6.90;;;;;;;2.48;93.46;99507.35;105375;1268;60587;-75
2022/01/29 10:33:19;;;;;;;14.30;6.70;;;;;;;2.50;93.72;99496.77;105339;1268;60305;-77
2022/01/29 10:35:51;;;;;;;19.80;7.60;;;;;;;2.58;93.73;99496.04;105343;1268;75340;-76
2022/01/29 10:38:40;;;;;;;14.50;6.70;;;;;;;2.65;94.58;99488.15;105452;1268;69221;-77
2022/01/29 10:41:20;;;;;;;15.70;7.30;;;;;;;2.78;94.54;99482.52;105109;1268;71740;-78
2022/01/29 10:44:17;;;;;;;19.40;7.60;;;;;;;2.98;94.49;99489.17;105252;1268;60500;-78
2022/01/29 10:46:50;;;;;;;14.20;5.80;;;;;;;3.10;93.54;99476.16;105283;1268;60439;-78
2022/01/29 10:49:21;;;;;;;12.20;6.30;;;;;;;3.14;93.70;99463.95;105339;1268;72928;-76
2022/01/29 10:52:16;;;;;;;18.70;8.50;;;;;;;3.21;93.25;99460.23;105286;1268;70529;-76
2022/01/29 10:54:44;;;;;;;11.50;6.30;;;;;;;3.33;92.52;99455.31;104908;1274;72868;-78
2022/01/29 10:57:14;;;;;;;15.00;6.60;;;;;;;3.41;92.49;99448.74;105049;1274;60398;-78
2022/01/29 10:59:50;;;;;;;13.70;6.80;;;;;;;3.49;93.11;99445.33;104982;1274;60835;-80
2022/01/29 11:02:19;;;;;;;19.30;8.70;;;;;;;3.59;93.29;99444.13;104943;1274;75542;-74
2022/01/29 11:04:47;;;;;;;17.30;8.20;;;;;;;3.66;92.65;99448.33;105013;1274;69947;-78
2022/01/29 11:07:18;;;;;;;17.50;8.20;;;;;;;3.72;92.52;99442.69;105115;1274;73994;-77
2022/01/29 11:09:47;;;;;;;19.10;8.70;;;;;;;3.76;91.40;99430.26;104960;1274;60393;-77
2022/01/29 11:12:19;;;;;;;15.90;7.40;;;;;;;3.76;91.44;99427.10;104987;1274;60535;-77
2022/01/29 11:14:48;;;;;;;20.50;9.70;;;;;;;3.76;91.72;99418.12;104655;1274;73477;-78
2022/01/29 11:17:18;;;;;;;13.70;7.30;;;;;;;3.81;92.03;99421.66;104726;1274;68909;-80
2022/01/29 11:19:46;;;;;;;17.00;7.60;;;;;;;3.86;91.20;99420.09;104939;1274;73130;-79
2022/01/29 11:22:18;;;;;;;16.50;7.40;;;;;;;3.84;91.01;99418.21;105070;1274;60444;-77
2022/01/29 11:24:48;;;;;;;16.20;8.20;;;;;;;3.83;91.00;99409.09;104922;1274;61159;-79
2022/01/29 11:27:19;;;;;;;;;;;;;;;3.83;90.47;99404.18;104978;1274;75616;-78
2022/01/29 11:30:02;;;;;;;;;;;;;;;3.82;90.64;99394.23;104927;1274;69322;-79
2022/01/29 11:32:41;;;;;;;17.30;8.40;;;;;;;3.84;90.77;99388.16;105166;1268;74023;-77